createdAt,value
2023-03-06T00:00:25.052Z,2.82
2023-03-06T00:02:52.388Z,2.78
2023-03-06T00:05:19.702Z,2.92
2023-03-06T00:07:46.598Z,2.90
2023-03-06T00:10:21.416Z,2.85
2023-03-06T00:12:48.143Z,2.68
2023-03-06T00:15:15.193Z,2.59
2023-03-06T00:17:41.879Z,2.57
2023-03-06T00:20:11.158Z,2.50
2023-03-06T00:22:38.297Z,2.41
2023-03-06T00:25:05.976Z,2.41
2023-03-06T00:27:33.219Z,2.28
2023-03-06T00:30:01.442Z,2.35
2023-03-06T00:32:29.162Z,2.30
2023-03-06T00:34:56.307Z,2.25
2023-03-06T00:37:24.860Z,2.26
2023-03-06T00:39:51.487Z,2.22
2023-03-06T00:42:19.270Z,2.13
2023-03-06T00:44:46.595Z,2.29
2023-03-06T00:47:13.970Z,2.27
2023-03-06T00:49:40.513Z,2.23
2023-03-06T00:52:07.240Z,2.06
2023-03-06T00:54:33.899Z,2.16
2023-03-06T00:57:00.597Z,2.00
2023-03-06T00:59:28.038Z,1.96
2023-03-06T01:01:55.220Z,1.84
2023-03-06T01:04:22.423Z,1.84
2023-03-06T01:06:49.249Z,1.84
2023-03-06T01:09:15.978Z,1.76
2023-03-06T01:11:42.770Z,1.69
2023-03-06T01:14:09.486Z,1.76
2023-03-06T01:16:36.161Z,1.80
2023-03-06T01:19:03.032Z,1.92
2023-03-06T01:21:29.768Z,1.78
2023-03-06T01:23:56.717Z,1.83
2023-03-06T01:26:23.504Z,1.81
2023-03-06T01:28:50.155Z,1.67
2023-03-06T01:31:16.792Z,1.55
2023-03-06T01:33:43.536Z,1.63
2023-03-06T01:36:12.308Z,1.72
2023-03-06T01:38:39.218Z,1.72
2023-03-06T01:41:06.251Z,1.60
2023-03-06T01:43:38.047Z,1.68
2023-03-06T01:46:34.137Z,1.69
2023-03-06T01:49:25.951Z,1.72
2023-03-06T01:52:14.720Z,1.68
2023-03-06T01:54:53.694Z,1.69
2023-03-06T01:57:31.478Z,1.82
2023-03-06T02:00:14.240Z,1.92
2023-03-06T02:02:42.919Z,1.93
2023-03-06T02:05:10.379Z,1.82
2023-03-06T02:07:38.020Z,1.89
2023-03-06T02:10:06.015Z,1.94
2023-03-06T02:12:32.964Z,2.02
2023-03-06T02:14:59.685Z,1.89
2023-03-06T02:17:27.070Z,1.80
2023-03-06T02:20:24.431Z,1.84
2023-03-06T02:23:28.636Z,1.84
2023-03-06T02:25:56.066Z,1.87
2023-03-06T02:28:23.980Z,1.84
2023-03-06T02:30:52.821Z,1.87
2023-03-06T02:33:22.359Z,1.95
2023-03-06T02:36:00.568Z,1.97
2023-03-06T02:38:37.705Z,1.95
2023-03-06T02:41:06.022Z,1.95
2023-03-06T02:43:38.346Z,1.99
2023-03-06T02:46:06.068Z,1.98
2023-03-06T02:48:32.816Z,2.04
2023-03-06T02:50:59.438Z,2.12
2023-03-06T02:53:26.191Z,2.08
2023-03-06T02:55:52.948Z,2.10
2023-03-06T02:58:21.180Z,2.14
2023-03-06T03:00:48.757Z,2.19
2023-03-06T03:03:15.526Z,2.21
2023-03-06T03:05:42.294Z,2.19
2023-03-06T03:08:08.975Z,2.19
2023-03-06T03:10:35.591Z,2.23
2023-03-06T03:13:02.333Z,2.26
2023-03-06T03:15:29.077Z,2.21
2023-03-06T03:17:55.851Z,2.24
2023-03-06T03:20:22.996Z,2.24
2023-03-06T03:22:51.130Z,2.33
2023-03-06T03:25:18.555Z,2.34
2023-03-06T03:27:45.473Z,2.41
2023-03-06T03:30:12.612Z,2.30
2023-03-06T03:32:39.279Z,2.35
2023-03-06T03:35:07.621Z,2.42
2023-03-06T03:37:35.196Z,2.38
2023-03-06T03:40:02.106Z,2.45
2023-03-06T03:42:28.946Z,2.45
2023-03-06T03:44:55.519Z,2.48
2023-03-06T03:47:22.143Z,2.50
2023-03-06T03:49:48.788Z,2.54
2023-03-06T03:52:15.501Z,2.53
2023-03-06T03:54:42.164Z,2.55
2023-03-06T03:57:08.917Z,2.58
2023-03-06T03:59:35.548Z,2.60
2023-03-06T04:02:05.021Z,2.59
2023-03-06T04:04:33.853Z,2.61
2023-03-06T04:07:01.003Z,2.63
2023-03-06T04:09:27.735Z,2.66
2023-03-06T04:11:54.443Z,2.67
2023-03-06T04:14:22.555Z,2.64
2023-03-06T04:16:49.223Z,2.69
2023-03-06T04:19:15.989Z,2.63
2023-03-06T04:21:42.676Z,2.62
2023-03-06T04:24:09.340Z,2.64
2023-03-06T04:26:36.309Z,2.67
2023-03-06T04:29:02.968Z,2.60
2023-03-06T04:31:29.890Z,2.55
2023-03-06T04:33:56.659Z,2.53
2023-03-06T04:36:31.600Z,2.61
2023-03-06T04:38:58.385Z,2.52
2023-03-06T04:41:25.340Z,2.52
2023-03-06T04:43:52.453Z,2.63
2023-03-06T04:46:19.145Z,2.61
2023-03-06T04:48:45.808Z,2.71
2023-03-06T04:51:13.602Z,2.74
2023-03-06T04:53:40.282Z,2.69
2023-03-06T04:56:07.473Z,2.71
2023-03-06T04:58:34.077Z,2.82
2023-03-06T05:01:02.471Z,2.82
2023-03-06T05:03:29.513Z,2.79
2023-03-06T05:05:56.187Z,2.90
2023-03-06T05:08:23.902Z,2.83
2023-03-06T05:10:56.508Z,2.89
2023-03-06T05:13:23.217Z,2.95
2023-03-06T05:15:49.837Z,2.87
2023-03-06T05:18:17.043Z,2.81
2023-03-06T05:20:43.806Z,2.89
2023-03-06T05:23:10.831Z,2.91
2023-03-06T05:25:40.939Z,2.87
2023-03-06T05:28:08.856Z,2.94
2023-03-06T05:30:35.926Z,2.92
2023-03-06T05:33:02.579Z,2.88
2023-03-06T05:35:29.308Z,2.80
2023-03-06T05:37:56.673Z,2.88
2023-03-06T05:40:23.246Z,2.94
2023-03-06T05:42:50.226Z,2.93
2023-03-06T05:45:16.861Z,2.93
2023-03-06T05:47:43.529Z,2.90
2023-03-06T05:50:11.291Z,2.87
2023-03-06T05:52:39.864Z,2.92
2023-03-06T05:55:10.087Z,2.92
2023-03-06T05:57:36.783Z,2.86
2023-03-06T06:00:04.126Z,2.93
2023-03-06T06:02:30.860Z,2.95
2023-03-06T06:04:57.687Z,2.97
2023-03-06T06:07:24.307Z,2.89
2023-03-06T06:09:53.496Z,2.94
2023-03-06T06:12:20.222Z,2.91
2023-03-06T06:14:46.863Z,2.90
2023-03-06T06:17:13.510Z,2.85
2023-03-06T06:19:40.110Z,2.85
2023-03-06T06:22:07.164Z,2.84
2023-03-06T06:24:33.917Z,2.92
2023-03-06T06:27:03.400Z,2.96
2023-03-06T06:29:30.589Z,2.96
2023-03-06T06:31:58.165Z,2.91
2023-03-06T06:34:25.656Z,2.86
2023-03-06T06:36:53.759Z,2.93
2023-03-06T06:39:22.991Z,2.97
2023-03-06T06:42:02.640Z,3.03
2023-03-06T06:44:32.487Z,3.07
2023-03-06T06:49:50.564Z,3.02
2023-03-06T06:52:19.017Z,3.05
2023-03-06T06:54:45.849Z,3.06
2023-03-06T06:57:12.794Z,3.02
2023-03-06T06:59:39.470Z,3.11
2023-03-06T07:02:06.325Z,3.05
2023-03-06T07:04:33.492Z,3.12
2023-03-06T07:07:01.660Z,3.11
2023-03-06T07:09:30.459Z,3.23
2023-03-06T07:11:57.564Z,3.12
2023-03-06T07:14:24.735Z,3.12
2023-03-06T07:16:51.437Z,3.11
2023-03-06T07:19:18.304Z,3.16
2023-03-06T07:21:45.028Z,3.17
2023-03-06T07:24:11.731Z,3.19
2023-03-06T07:26:38.493Z,3.16
2023-03-06T07:29:05.218Z,3.23
2023-03-06T07:31:32.390Z,3.09
2023-03-06T07:33:59.069Z,3.13
2023-03-06T07:36:25.701Z,3.17
2023-03-06T07:38:52.277Z,3.23
2023-03-06T07:41:22.212Z,3.20
2023-03-06T07:43:49.913Z,3.25
2023-03-06T07:46:17.298Z,3.25
2023-03-06T07:48:44.812Z,3.08
2023-03-06T07:51:19.709Z,3.27
2023-03-06T07:53:47.591Z,3.30
2023-03-06T07:56:14.418Z,3.22
2023-03-06T07:58:43.441Z,3.18
2023-03-06T08:01:13.064Z,3.25
2023-03-06T08:03:39.971Z,3.29
2023-03-06T08:06:17.854Z,3.28
2023-03-06T08:08:46.133Z,3.30
2023-03-06T08:11:15.302Z,3.35
2023-03-06T08:13:42.533Z,3.27
2023-03-06T08:16:09.876Z,3.42
2023-03-06T08:18:38.285Z,3.31
2023-03-06T08:21:13.141Z,3.28
2023-03-06T08:23:40.628Z,3.34
2023-03-06T08:26:11.079Z,3.26
2023-03-06T08:28:37.771Z,3.36
2023-03-06T08:31:21.784Z,3.35
2023-03-06T08:33:48.459Z,3.38
2023-03-06T08:36:15.447Z,3.38
2023-03-06T08:38:42.127Z,3.34
2023-03-06T08:41:08.951Z,3.32
2023-03-06T08:43:36.024Z,3.34
2023-03-06T08:46:02.991Z,3.39
2023-03-06T08:48:29.785Z,3.50
2023-03-06T08:50:56.487Z,3.48
2023-03-06T08:53:33.462Z,3.47
2023-03-06T08:56:08.804Z,3.44
2023-03-06T08:58:35.459Z,3.48
2023-03-06T09:01:03.893Z,3.53
2023-03-06T09:03:30.779Z,3.57
2023-03-06T09:05:57.496Z,3.58
2023-03-06T09:08:24.184Z,3.63
2023-03-06T09:10:50.953Z,3.60
2023-03-06T09:13:17.532Z,3.70
2023-03-06T09:15:44.176Z,3.67
2023-03-06T09:18:10.756Z,3.68
2023-03-06T09:20:37.422Z,3.79
2023-03-06T09:23:04.038Z,3.93
2023-03-06T09:25:31.308Z,3.80
2023-03-06T09:28:10.987Z,3.79
2023-03-06T09:30:40.633Z,3.82
2023-03-06T09:33:07.499Z,3.83
2023-03-06T09:35:34.142Z,3.97
2023-03-06T09:38:00.789Z,3.96
2023-03-06T09:40:42.873Z,4.06
2023-03-06T09:43:19.033Z,4.18
2023-03-06T09:45:45.858Z,4.39
2023-03-06T09:48:16.625Z,4.46
2023-03-06T09:50:53.277Z,4.57
2023-03-06T09:53:49.915Z,4.58
2023-03-06T09:56:20.395Z,4.59
2023-03-06T09:58:54.411Z,4.56
2023-03-06T10:01:25.278Z,4.55
2023-03-06T10:04:12.371Z,4.59
2023-03-06T10:06:48.622Z,4.70
2023-03-06T10:09:38.746Z,4.71
2023-03-06T10:12:24.301Z,4.82
2023-03-06T10:15:08.003Z,4.96
2023-03-06T10:17:38.051Z,4.95
2023-03-06T10:20:44.254Z,5.09
2023-03-06T10:23:47.011Z,5.01
2023-03-06T10:26:17.422Z,5.00
2023-03-06T10:28:54.468Z,4.97
2023-03-06T10:31:27.368Z,4.90
2023-03-06T10:34:43.810Z,4.85
2023-03-06T10:37:20.656Z,4.75
2023-03-06T10:39:52.693Z,4.68
2023-03-06T10:42:19.266Z,4.69
2023-03-06T10:44:46.144Z,4.60
2023-03-06T10:47:30.187Z,4.64
2023-03-06T10:49:59.609Z,4.83
2023-03-06T10:52:29.531Z,4.82
2023-03-06T10:55:24.056Z,5.06
2023-03-06T10:57:50.762Z,5.14
2023-03-06T11:00:29.780Z,5.06
2023-03-06T11:03:18.473Z,5.01
2023-03-06T11:05:56.496Z,5.02
2023-03-06T11:08:23.249Z,4.84
2023-03-06T11:10:58.265Z,4.81
2023-03-06T11:13:27.553Z,4.70
2023-03-06T11:16:19.703Z,4.73
2023-03-06T11:18:59.359Z,4.84
2023-03-06T11:21:32.104Z,4.85
2023-03-06T11:24:06.627Z,4.84
2023-03-06T11:26:38.145Z,4.84
2023-03-06T11:29:12.472Z,4.76
2023-03-06T11:31:45.003Z,4.74
2023-03-06T11:34:24.324Z,4.75
2023-03-06T11:37:16.967Z,4.80
2023-03-06T11:39:49.564Z,4.64
2023-03-06T11:42:20.632Z,4.54
2023-03-06T11:45:10.330Z,4.50
2023-03-06T11:47:54.668Z,4.49
2023-03-06T11:50:46.734Z,4.43
2023-03-06T11:53:15.926Z,4.36
2023-03-06T11:56:15.075Z,4.28
2023-03-06T11:59:01.330Z,4.39
2023-03-06T12:01:38.871Z,4.39
2023-03-06T12:04:39.620Z,4.36
2023-03-06T12:07:17.628Z,4.27
2023-03-06T12:13:50.159Z,4.56
2023-03-06T12:17:00.036Z,4.57
2023-03-06T12:19:31.152Z,4.64
2023-03-06T12:22:09.538Z,4.73
2023-03-06T12:25:22.913Z,4.80
2023-03-06T12:28:18.748Z,4.74
2023-03-06T12:31:25.054Z,4.72
2023-03-06T12:34:13.015Z,4.76
2023-03-06T12:37:02.571Z,4.85
2023-03-06T12:40:01.869Z,4.73
2023-03-06T12:42:48.319Z,4.63
2023-03-06T12:45:25.956Z,4.66
2023-03-06T12:47:56.698Z,4.54
2023-03-06T12:50:29.003Z,4.58
2023-03-06T12:52:58.920Z,4.49
2023-03-06T12:55:26.228Z,4.48
2023-03-06T12:57:54.047Z,4.53
2023-03-06T13:00:58.755Z,4.54
2023-03-06T13:03:54.650Z,4.52
2023-03-06T13:07:01.960Z,4.40
2023-03-06T13:10:05.012Z,4.45
2023-03-06T13:12:51.763Z,4.43
2023-03-06T13:15:41.622Z,4.43
2023-03-06T13:22:03.699Z,4.08
2023-03-06T13:24:35.741Z,3.92
2023-03-06T13:27:45.770Z,3.81
2023-03-06T13:30:43.591Z,3.76
2023-03-06T13:33:52.551Z,3.68
2023-03-06T13:36:30.619Z,3.81
2023-03-06T13:38:59.550Z,3.92
2023-03-06T13:41:33.312Z,3.82
2023-03-06T13:44:01.970Z,3.91
2023-03-06T13:46:31.531Z,4.00
2023-03-06T13:49:13.282Z,4.15
2023-03-06T13:52:09.474Z,4.34
2023-03-06T13:55:14.182Z,4.38
2023-03-06T13:58:10.251Z,4.41
2023-03-06T14:01:07.896Z,4.45
2023-03-06T14:04:01.680Z,4.58
2023-03-06T14:06:46.942Z,4.59
2023-03-06T14:09:32.019Z,4.58
2023-03-06T14:12:02.784Z,4.62
2023-03-06T14:14:36.360Z,4.57
2023-03-06T14:17:05.247Z,4.71
2023-03-06T14:19:37.507Z,4.76
2023-03-06T14:22:06.106Z,4.86
2023-03-06T14:24:42.503Z,4.72
2023-03-06T14:27:17.302Z,4.76
2023-03-06T14:29:44.689Z,4.80
2023-03-06T14:32:12.459Z,4.87
2023-03-06T14:34:41.215Z,4.66
2023-03-06T14:37:20.321Z,4.65
2023-03-06T14:39:47.153Z,4.71
2023-03-06T14:42:28.574Z,4.78
2023-03-06T14:45:03.687Z,4.77
2023-03-06T14:47:32.646Z,4.67
2023-03-06T14:50:27.956Z,4.67
2023-03-06T14:52:59.965Z,4.80
2023-03-06T14:55:28.679Z,4.79
2023-03-06T14:58:03.282Z,4.75
2023-03-06T15:00:35.814Z,4.68
2023-03-06T15:03:05.571Z,4.73
2023-03-06T15:05:32.751Z,4.73
2023-03-06T15:08:04.549Z,4.69
2023-03-06T15:10:33.541Z,4.65
2023-03-06T15:13:21.686Z,4.61
2023-03-06T15:16:15.798Z,4.63
2023-03-06T15:19:01.375Z,4.63
2023-03-06T15:21:31.438Z,4.60
2023-03-06T15:23:58.273Z,4.61
2023-03-06T15:26:31.631Z,4.61
2023-03-06T15:29:31.045Z,4.55
2023-03-06T15:32:25.475Z,4.49
2023-03-06T15:35:30.242Z,4.41
2023-03-06T15:37:57.606Z,4.43
2023-03-06T15:40:26.714Z,4.39
2023-03-06T15:42:53.462Z,4.41
2023-03-06T15:45:22.379Z,4.45
2023-03-06T15:47:51.097Z,4.47
2023-03-06T15:50:23.724Z,4.44
2023-03-06T15:52:50.427Z,4.43
2023-03-06T15:55:19.754Z,4.46
2023-03-06T15:58:05.014Z,4.40
2023-03-06T16:00:34.402Z,4.40
2023-03-06T16:03:02.342Z,4.47
2023-03-06T16:05:29.370Z,4.40
2023-03-06T16:07:56.465Z,4.47
2023-03-06T16:10:25.873Z,4.50
2023-03-06T16:12:55.795Z,4.44
2023-03-06T16:15:29.289Z,4.47
2023-03-06T16:17:57.008Z,4.53
2023-03-06T16:20:25.717Z,4.47
2023-03-06T16:22:53.964Z,4.53
2023-03-06T16:25:21.716Z,4.52
2023-03-06T16:27:55.586Z,4.54
2023-03-06T16:30:24.382Z,4.47
2023-03-06T16:32:51.035Z,4.46
2023-03-06T16:35:18.694Z,4.41
2023-03-06T16:37:52.224Z,4.38
2023-03-06T16:40:22.648Z,4.43
2023-03-06T16:42:50.332Z,4.40
2023-03-06T16:45:18.312Z,4.36
2023-03-06T16:47:46.388Z,4.41
2023-03-06T16:50:27.514Z,4.34
2023-03-06T16:52:55.638Z,4.36
2023-03-06T16:55:23.803Z,4.21
2023-03-06T16:57:50.746Z,4.22
2023-03-06T17:00:18.818Z,4.17
2023-03-06T17:02:47.620Z,4.19
2023-03-06T17:05:14.540Z,4.16
2023-03-06T17:07:41.566Z,4.02
2023-03-06T17:10:11.067Z,3.96
2023-03-06T17:12:37.753Z,3.93
2023-03-06T17:15:06.127Z,4.04
2023-03-06T17:17:32.981Z,3.95
2023-03-06T17:19:59.846Z,3.98
2023-03-06T17:22:27.544Z,3.95
2023-03-06T17:24:54.469Z,3.94
2023-03-06T17:27:22.381Z,3.90
2023-03-06T17:29:49.004Z,3.94
2023-03-06T17:32:15.809Z,3.83
2023-03-06T17:34:42.837Z,3.99
2023-03-06T17:37:09.508Z,3.91
2023-03-06T17:39:37.657Z,3.86
2023-03-06T17:42:05.643Z,3.90
2023-03-06T17:44:34.123Z,3.82
2023-03-06T17:47:01.470Z,3.77
2023-03-06T17:49:28.238Z,3.74
2023-03-06T17:51:56.790Z,3.71
2023-03-06T17:54:26.217Z,3.61
2023-03-06T17:57:01.119Z,3.47
2023-03-06T17:59:28.320Z,3.36
2023-03-06T18:01:58.879Z,3.39
2023-03-06T18:04:25.737Z,3.34
2023-03-06T18:06:52.476Z,3.31
2023-03-06T18:09:19.383Z,3.31
2023-03-06T18:11:45.971Z,3.25
2023-03-06T18:14:12.581Z,3.27
2023-03-06T18:16:39.236Z,3.26
2023-03-06T18:19:05.905Z,3.28
2023-03-06T18:21:32.558Z,3.18
2023-03-06T18:23:59.309Z,3.12
2023-03-06T18:26:28.212Z,3.04
2023-03-06T18:29:01.642Z,3.11
2023-03-06T18:31:33.761Z,3.09
2023-03-06T18:34:03.709Z,3.13
2023-03-06T18:36:32.077Z,3.09
2023-03-06T18:39:00.893Z,3.09
2023-03-06T18:41:27.562Z,3.11
2023-03-06T18:43:55.905Z,3.03
2023-03-06T18:46:23.387Z,2.97
2023-03-06T18:48:50.393Z,2.91
2023-03-06T18:51:18.050Z,2.92
2023-03-06T18:53:44.875Z,2.90
2023-03-06T18:56:16.880Z,2.89
2023-03-06T18:58:44.529Z,2.83
2023-03-06T19:01:12.208Z,2.80
2023-03-06T19:03:38.950Z,2.65
2023-03-06T19:06:08.094Z,2.72
2023-03-06T19:08:36.093Z,2.73
2023-03-06T19:11:08.012Z,2.67
2023-03-06T19:13:34.816Z,2.71
2023-03-06T19:16:02.030Z,2.60
2023-03-06T19:18:31.060Z,2.58
2023-03-06T19:21:11.447Z,2.57
2023-03-06T19:23:38.205Z,2.48
2023-03-06T19:26:05.326Z,2.49
2023-03-06T19:28:32.665Z,2.42
2023-03-06T19:31:00.486Z,2.33
2023-03-06T19:33:27.179Z,2.26
2023-03-06T19:35:56.231Z,2.24
2023-03-06T19:38:23.039Z,2.19
2023-03-06T19:40:50.716Z,2.21
2023-03-06T19:43:17.491Z,2.24
2023-03-06T19:45:44.874Z,2.23
2023-03-06T19:48:12.656Z,2.11
2023-03-06T19:50:40.513Z,2.16
2023-03-06T19:53:08.288Z,1.99
2023-03-06T19:55:35.054Z,2.12
2023-03-06T19:58:02.118Z,1.99
2023-03-06T20:00:28.942Z,1.88
2023-03-06T20:02:56.241Z,2.01
2023-03-06T20:05:22.984Z,2.06
2023-03-06T20:07:50.179Z,2.02
2023-03-06T20:10:17.591Z,2.03
2023-03-06T20:12:44.546Z,2.05
2023-03-06T20:15:11.427Z,1.93
2023-03-06T20:17:40.747Z,1.98
2023-03-06T20:20:10.842Z,1.91
2023-03-06T20:22:37.720Z,1.91
2023-03-06T20:25:05.244Z,1.95
2023-03-06T20:27:32.944Z,1.89
2023-03-06T20:29:59.790Z,2.02
2023-03-06T20:32:26.955Z,1.81
2023-03-06T20:34:53.564Z,1.83
2023-03-06T20:37:20.126Z,1.90
2023-03-06T20:39:47.002Z,1.98
2023-03-06T20:42:13.639Z,1.87
2023-03-06T20:44:40.297Z,1.82
2023-03-06T20:47:06.897Z,1.80
2023-03-06T20:49:33.532Z,1.82
2023-03-06T20:52:00.164Z,1.83
2023-03-06T20:54:26.788Z,1.92
2023-03-06T20:56:53.417Z,2.02
2023-03-06T20:59:20.216Z,2.03
2023-03-06T21:01:48.149Z,2.09
2023-03-06T21:04:15.517Z,2.12
2023-03-06T21:06:46.744Z,2.05
2023-03-06T21:09:16.279Z,2.04
2023-03-06T21:11:42.939Z,2.08
2023-03-06T21:14:09.800Z,2.03
2023-03-06T21:16:36.574Z,2.02
2023-03-06T21:19:03.851Z,2.04
2023-03-06T21:21:33.506Z,2.14
2023-03-06T21:24:01.106Z,2.06
2023-03-06T21:26:33.938Z,2.06
2023-03-06T21:29:01.712Z,2.02
2023-03-06T21:31:28.920Z,1.88
2023-03-06T21:33:56.438Z,1.84
2023-03-06T21:36:23.831Z,1.88
2023-03-06T21:38:52.376Z,1.90
2023-03-06T21:41:24.945Z,1.89
2023-03-06T21:43:59.252Z,1.85
2023-03-06T21:46:26.864Z,1.86
2023-03-06T21:48:53.840Z,1.88
2023-03-06T21:51:23.778Z,1.93
2023-03-06T21:53:51.173Z,1.99
2023-03-06T21:56:19.357Z,1.91
2023-03-06T21:58:46.063Z,1.90
2023-03-06T22:01:16.266Z,1.98
2023-03-06T22:03:43.119Z,2.00
2023-03-06T22:06:15.374Z,2.05
2023-03-06T22:08:42.745Z,2.03
2023-03-06T22:11:15.021Z,1.94
2023-03-06T22:13:41.864Z,1.90
2023-03-06T22:16:08.888Z,1.91
2023-03-06T22:18:36.240Z,1.87
2023-03-06T22:21:10.202Z,1.87
2023-03-06T22:23:37.131Z,1.89
2023-03-06T22:26:09.417Z,1.91
2023-03-06T22:28:36.365Z,2.01
2023-03-06T22:31:05.372Z,2.01
2023-03-06T22:33:31.998Z,1.97
2023-03-06T22:36:05.492Z,2.02
2023-03-06T22:38:33.858Z,2.06
2023-03-06T22:41:00.887Z,2.21
2023-03-06T22:43:27.748Z,2.42
2023-03-06T22:45:54.522Z,2.45
2023-03-06T22:48:21.300Z,2.46
2023-03-06T22:50:47.943Z,2.44
2023-03-06T22:53:14.568Z,2.53
2023-03-06T22:55:41.463Z,2.54
2023-03-06T22:58:08.185Z,2.57
2023-03-06T23:00:35.232Z,2.68
2023-03-06T23:03:02.220Z,2.67
2023-03-06T23:05:29.568Z,2.75
2023-03-06T23:07:56.360Z,2.67
2023-03-06T23:10:23.087Z,2.67
2023-03-06T23:12:49.691Z,2.73
2023-03-06T23:15:16.360Z,2.79
2023-03-06T23:17:43.041Z,2.78
2023-03-06T23:20:10.412Z,2.78
2023-03-06T23:22:37.340Z,2.85
2023-03-06T23:25:04.551Z,2.81
2023-03-06T23:27:31.366Z,2.74
2023-03-06T23:29:59.231Z,2.79
2023-03-06T23:32:26.199Z,2.67
2023-03-06T23:34:52.859Z,2.75
2023-03-06T23:37:19.544Z,2.72
2023-03-06T23:39:46.146Z,2.71
2023-03-06T23:42:12.744Z,2.65
2023-03-06T23:44:39.601Z,2.60
2023-03-06T23:47:06.236Z,2.61
2023-03-06T23:49:33.037Z,2.61
2023-03-06T23:51:59.721Z,2.69
2023-03-06T23:54:26.454Z,2.68
2023-03-06T23:56:53.070Z,2.66
2023-03-06T23:59:19.702Z,2.53
